CPX263 Details

Departure: Washington Dulles International Airport (KIAD)
Arrival: General Edward Lawrence Logan International Airport (KBOS) at N/A
Route: JCOBY3 SWANN BROSS J42 RBV J222 JFK ROBUC3
Notes:


Current Weather Information
KIAD 250452Z 32004KT 10SM FEW055 BKN080 BKN250 18/13 A3022 RMK AO2 SLP229 T01830133 402610161 $
KBOS 250454Z 36005KT 10SM FEW020 FEW055 18/13 A3030 RMK AO2 SLP259 T01830133 402280167